Yaak, Montana
Current Conditions -  °F | °C
As of 1:15 AM on Friday 24 Oct 2014 (Local Time) from K65S Reporting Station
Overcast Overcast  
Wind Chill: 43°   Ceiling: 7000
Heat Index: 46°   Visibility: 10mi
Dew Point: 41°   Wind: 7mph
Humidity: 81%   Direction: 210°SSW
Pressure: 29.93"   Gusts: NA
Location:  48.7903°N, 115.78°W
Report Text: K65S 240715Z AUTO 21006KT 10SM BKN070 OVC075 08/05 A2993 RMK AO2
Loading
Personal Weather Stations






























Interactive Weather Map
Tropical Storm Tracking
New forecast layout! Learn more

10-Day Weather Forecast

Advertisements
Track Severe Weather on mobile